createdAt,value
2022-10-09T00:01:11.243Z,99.90
2022-10-09T00:03:40.346Z,99.90
2022-10-09T00:06:09.535Z,99.90
2022-10-09T00:08:39.292Z,99.90
2022-10-09T00:11:07.819Z,99.90
2022-10-09T00:13:34.910Z,99.90
2022-10-09T00:16:07.529Z,99.90
2022-10-09T00:18:34.886Z,99.90
2022-10-09T00:21:01.660Z,99.90
2022-10-09T00:23:28.707Z,99.90
2022-10-09T00:25:58.213Z,99.90
2022-10-09T00:28:26.549Z,99.90
2022-10-09T00:30:53.520Z,99.90
2022-10-09T00:33:20.970Z,99.90
2022-10-09T00:35:47.938Z,99.90
2022-10-09T00:38:15.009Z,99.90
2022-10-09T00:40:41.826Z,99.90
2022-10-09T00:43:20.153Z,99.90
2022-10-09T00:45:55.749Z,99.90
2022-10-09T00:48:23.377Z,99.90
2022-10-09T00:50:54.401Z,99.90
2022-10-09T00:53:24.152Z,99.90
2022-10-09T00:55:51.597Z,99.90
2022-10-09T00:58:18.599Z,99.90
2022-10-09T01:00:45.234Z,99.90
2022-10-09T01:03:12.363Z,99.90
2022-10-09T01:05:53.914Z,99.90
2022-10-09T01:08:30.221Z,99.90
2022-10-09T01:11:08.612Z,99.90
2022-10-09T01:13:45.502Z,99.90
2022-10-09T01:16:24.594Z,99.90
2022-10-09T01:19:04.709Z,99.90
2022-10-09T01:21:31.197Z,99.90
2022-10-09T01:24:03.386Z,99.90
2022-10-09T01:26:51.840Z,99.90
2022-10-09T01:29:20.837Z,99.90
2022-10-09T01:31:50.706Z,99.90
2022-10-09T01:34:19.804Z,99.90
2022-10-09T01:36:46.706Z,99.90
2022-10-09T01:39:18.054Z,99.90
2022-10-09T01:41:47.944Z,99.90
2022-10-09T01:44:24.378Z,99.90
2022-10-09T01:46:51.296Z,99.90
2022-10-09T01:49:29.792Z,99.90
2022-10-09T01:52:05.318Z,99.90
2022-10-09T01:55:01.173Z,99.90
2022-10-09T01:58:00.966Z,99.90
2022-10-09T02:00:30.526Z,99.90
2022-10-09T02:02:58.522Z,99.90
2022-10-09T02:05:29.645Z,99.90
2022-10-09T02:07:58.046Z,99.90
2022-10-09T02:10:25.909Z,99.90
2022-10-09T02:12:58.825Z,99.90
2022-10-09T02:15:36.344Z,99.90
2022-10-09T02:18:09.814Z,99.90
2022-10-09T02:20:39.726Z,99.90
2022-10-09T02:23:08.317Z,99.90
2022-10-09T02:25:35.578Z,99.90
2022-10-09T02:28:03.254Z,99.90
2022-10-09T02:30:45.208Z,99.90
2022-10-09T02:33:11.776Z,99.90
2022-10-09T02:35:39.394Z,99.90
2022-10-09T02:38:05.916Z,99.90
2022-10-09T02:40:32.446Z,99.90
2022-10-09T02:42:58.953Z,99.90
2022-10-09T02:45:25.486Z,99.90
2022-10-09T02:47:52.038Z,99.90
2022-10-09T02:50:18.821Z,99.90
2022-10-09T02:52:45.771Z,99.90
2022-10-09T02:55:12.504Z,99.90
2022-10-09T02:57:39.057Z,99.90
2022-10-09T03:00:06.410Z,99.90
2022-10-09T03:02:33.049Z,99.90
2022-10-09T03:05:00.073Z,99.90
2022-10-09T03:07:26.617Z,99.90
2022-10-09T03:09:53.186Z,99.90
2022-10-09T03:12:22.031Z,99.90
2022-10-09T03:14:48.821Z,99.90
2022-10-09T03:17:15.465Z,99.90
2022-10-09T03:19:42.340Z,99.90
2022-10-09T03:22:08.915Z,99.90
2022-10-09T03:24:35.477Z,99.90
2022-10-09T03:27:02.021Z,99.90
2022-10-09T03:29:28.575Z,99.90
2022-10-09T03:31:55.354Z,99.90
2022-10-09T03:34:21.990Z,99.90
2022-10-09T03:36:48.517Z,99.90
2022-10-09T03:39:15.059Z,99.90
2022-10-09T03:41:41.635Z,99.90
2022-10-09T03:44:08.168Z,99.90
2022-10-09T03:46:34.778Z,99.90
2022-10-09T03:49:01.369Z,99.90
2022-10-09T03:51:27.921Z,99.90
2022-10-09T03:53:54.763Z,99.90
2022-10-09T03:56:21.266Z,99.90
2022-10-09T03:58:47.799Z,99.90
2022-10-09T04:01:14.375Z,99.90
2022-10-09T04:03:40.971Z,99.90
2022-10-09T04:06:07.574Z,99.90
2022-10-09T04:08:35.259Z,99.90
2022-10-09T04:11:01.996Z,99.90
2022-10-09T04:13:28.539Z,99.90
2022-10-09T04:15:56.148Z,99.90
2022-10-09T04:18:23.022Z,99.90
2022-10-09T04:20:51.443Z,99.90
2022-10-09T04:23:19.260Z,99.90
2022-10-09T04:25:46.150Z,99.90
2022-10-09T04:28:13.275Z,99.90
2022-10-09T04:30:39.839Z,99.90
2022-10-09T04:33:10.483Z,99.90
2022-10-09T04:35:49.066Z,99.90
2022-10-09T04:38:15.576Z,99.90
2022-10-09T04:40:42.198Z,99.90
2022-10-09T04:43:09.076Z,99.90
2022-10-09T04:45:40.124Z,99.90
2022-10-09T04:48:06.772Z,99.90
2022-10-09T04:50:33.546Z,99.90
2022-10-09T04:53:00.198Z,99.90
2022-10-09T04:55:26.773Z,99.90
2022-10-09T04:57:53.300Z,99.90
2022-10-09T05:00:19.857Z,99.90
2022-10-09T05:02:46.696Z,99.90
2022-10-09T05:05:13.737Z,99.90
2022-10-09T05:07:40.294Z,99.90
2022-10-09T05:10:07.271Z,99.90
2022-10-09T05:12:33.831Z,99.90
2022-10-09T05:15:00.369Z,99.90
2022-10-09T05:17:27.450Z,99.90
2022-10-09T05:19:54.070Z,99.90
2022-10-09T05:22:20.683Z,99.90
2022-10-09T05:24:47.414Z,99.90
2022-10-09T05:27:13.945Z,99.90
2022-10-09T05:29:40.496Z,99.90
2022-10-09T05:32:07.370Z,99.90
2022-10-09T05:34:34.937Z,99.90
2022-10-09T05:37:01.508Z,99.90
2022-10-09T05:39:28.045Z,99.90
2022-10-09T05:41:54.586Z,99.90
2022-10-09T05:44:21.163Z,99.90
2022-10-09T05:46:47.721Z,99.90
2022-10-09T05:49:15.394Z,99.90
2022-10-09T05:51:44.779Z,99.90
2022-10-09T05:54:17.006Z,99.90
2022-10-09T05:56:45.067Z,99.90
2022-10-09T05:59:19.444Z,99.90
2022-10-09T06:01:48.714Z,99.90
2022-10-09T06:04:20.269Z,99.90
2022-10-09T06:06:48.482Z,99.90
2022-10-09T06:09:17.376Z,99.90
2022-10-09T06:11:44.384Z,99.90
2022-10-09T06:14:13.142Z,99.90
2022-10-09T06:16:42.313Z,99.90
2022-10-09T06:19:14.424Z,99.90
2022-10-09T06:21:41.104Z,99.90
2022-10-09T06:24:07.933Z,99.90
2022-10-09T06:26:34.902Z,99.90
2022-10-09T06:29:02.943Z,99.90
2022-10-09T06:31:32.064Z,99.90
2022-10-09T06:34:00.341Z,99.90
2022-10-09T06:36:29.924Z,99.90
2022-10-09T06:38:58.453Z,99.90
2022-10-09T06:41:26.425Z,99.90
2022-10-09T06:44:16.610Z,99.90
2022-10-09T06:46:44.681Z,99.90
2022-10-09T06:49:12.305Z,99.90
2022-10-09T06:51:38.994Z,99.90
2022-10-09T06:54:11.923Z,99.90
2022-10-09T06:56:38.756Z,99.90
2022-10-09T06:59:07.062Z,99.90
2022-10-09T07:01:34.355Z,99.90
2022-10-09T07:04:06.606Z,99.90
2022-10-09T07:06:36.662Z,99.90
2022-10-09T07:09:06.060Z,99.90
2022-10-09T07:11:38.402Z,99.90
2022-10-09T07:14:07.221Z,99.90
2022-10-09T07:16:36.459Z,99.90
2022-10-09T07:19:07.277Z,99.90
2022-10-09T07:21:35.009Z,99.90
2022-10-09T07:24:02.282Z,99.90
2022-10-09T07:26:30.806Z,99.90
2022-10-09T07:28:58.125Z,99.90
2022-10-09T07:31:25.163Z,99.90
2022-10-09T07:33:53.418Z,99.90
2022-10-09T07:36:20.349Z,99.90
2022-10-09T07:38:57.979Z,99.90
2022-10-09T07:41:27.275Z,99.90
2022-10-09T07:43:53.897Z,99.90
2022-10-09T07:46:22.264Z,99.90
2022-10-09T07:48:49.641Z,99.90
2022-10-09T07:51:34.490Z,99.90
2022-10-09T07:54:02.386Z,99.90
2022-10-09T07:56:32.237Z,99.90
2022-10-09T07:59:00.930Z,99.90
2022-10-09T08:01:29.082Z,99.90
2022-10-09T08:03:56.868Z,99.90
2022-10-09T08:06:23.649Z,99.90
2022-10-09T08:08:55.145Z,99.90
2022-10-09T08:11:23.675Z,99.90
2022-10-09T08:13:51.384Z,99.90
2022-10-09T08:16:19.564Z,99.90
2022-10-09T08:18:47.100Z,99.90
2022-10-09T08:21:17.360Z,99.90
2022-10-09T08:23:44.382Z,99.90
2022-10-09T08:26:21.972Z,99.90
2022-10-09T08:28:54.084Z,99.90
2022-10-09T08:31:21.803Z,99.90
2022-10-09T08:33:52.298Z,99.90
2022-10-09T08:36:19.213Z,99.90
2022-10-09T08:38:47.977Z,99.90
2022-10-09T08:41:27.250Z,99.90
2022-10-09T08:44:25.246Z,99.90
2022-10-09T08:47:24.933Z,99.90
2022-10-09T08:50:15.639Z,99.90
2022-10-09T08:52:51.703Z,99.90
2022-10-09T08:55:45.266Z,99.90
2022-10-09T08:58:16.345Z,99.90
2022-10-09T09:01:09.948Z,99.90
2022-10-09T09:03:53.066Z,99.90
2022-10-09T09:06:26.853Z,99.90
2022-10-09T09:09:16.540Z,99.90
2022-10-09T09:11:48.840Z,99.90
2022-10-09T09:14:23.753Z,99.90
2022-10-09T09:17:25.409Z,99.90
2022-10-09T09:20:10.378Z,99.90
2022-10-09T09:22:41.182Z,99.90
2022-10-09T09:25:35.682Z,99.90
2022-10-09T09:28:21.112Z,99.90
2022-10-09T09:30:55.620Z,99.90
2022-10-09T09:33:36.667Z,99.90
2022-10-09T09:36:22.616Z,99.90
2022-10-09T09:39:35.121Z,99.90
2022-10-09T09:41:36.653Z,99.90
2022-10-09T09:44:05.501Z,99.90
2022-10-09T09:46:32.840Z,99.90
2022-10-09T09:48:59.671Z,99.90
2022-10-09T09:51:31.146Z,99.90
2022-10-09T09:54:07.724Z,99.90
2022-10-09T09:57:10.483Z,99.90
2022-10-09T09:59:36.603Z,99.90
2022-10-09T10:02:24.120Z,99.90
2022-10-09T10:04:53.381Z,99.90
2022-10-09T10:07:35.001Z,99.90
2022-10-09T10:10:20.993Z,99.90
2022-10-09T10:13:00.475Z,99.90
2022-10-09T10:15:32.538Z,99.90
2022-10-09T10:18:16.404Z,99.90
2022-10-09T10:20:58.643Z,99.90
2022-10-09T10:23:35.419Z,99.90
2022-10-09T10:26:22.496Z,99.90
2022-10-09T10:29:11.561Z,99.90
2022-10-09T10:31:47.290Z,99.90
2022-10-09T10:34:26.152Z,99.90
2022-10-09T10:37:14.866Z,99.90
2022-10-09T10:40:17.728Z,99.90
2022-10-09T10:42:59.414Z,99.90
2022-10-09T10:45:45.998Z,99.90
2022-10-09T10:48:25.118Z,99.90
2022-10-09T10:51:02.686Z,99.90
2022-10-09T10:54:00.222Z,99.90
2022-10-09T10:56:32.003Z,99.90
2022-10-09T10:59:27.276Z,99.90
2022-10-09T11:02:04.726Z,99.90
2022-10-09T11:04:50.005Z,99.90
2022-10-09T11:07:31.345Z,99.70
2022-10-09T11:10:24.173Z,99.90
2022-10-09T11:13:18.503Z,99.80
2022-10-09T11:15:51.215Z,99.90
2022-10-09T11:19:03.001Z,99.90
2022-10-09T11:21:50.057Z,99.80
2022-10-09T11:24:42.120Z,99.90
2022-10-09T11:27:55.625Z,99.40
2022-10-09T11:30:22.411Z,99.50
2022-10-09T11:33:11.290Z,98.90
2022-10-09T11:35:44.060Z,98.40
2022-10-09T11:38:38.104Z,98.60
2022-10-09T11:41:07.599Z,98.10
2022-10-09T11:44:00.452Z,98.30
2022-10-09T11:47:00.275Z,98.10
2022-10-09T11:50:12.405Z,98.20
2022-10-09T11:52:54.337Z,98.30
2022-10-09T11:55:27.378Z,98.20
2022-10-09T11:57:54.185Z,98.50
2022-10-09T12:00:36.349Z,98.30
2022-10-09T12:03:07.017Z,97.40
2022-10-09T12:05:46.081Z,97.40
2022-10-09T12:08:26.978Z,96.50
2022-10-09T12:10:58.061Z,96.30
2022-10-09T12:13:39.146Z,96.70
2022-10-09T12:16:11.623Z,96.70
2022-10-09T12:18:46.844Z,96.70
2022-10-09T12:21:25.825Z,95.80
2022-10-09T12:23:53.104Z,95.60
2022-10-09T12:26:23.772Z,96.00
2022-10-09T12:28:54.464Z,96.90
2022-10-09T12:31:36.723Z,97.30
2022-10-09T12:34:14.960Z,95.80
2022-10-09T12:36:41.534Z,95.30
2022-10-09T12:39:23.774Z,96.70
2022-10-09T12:41:54.727Z,96.60
2022-10-09T12:44:38.389Z,96.90
2022-10-09T12:47:08.736Z,96.50
2022-10-09T12:49:36.030Z,96.90
2022-10-09T12:52:02.777Z,96.80
2022-10-09T12:54:31.148Z,96.90
2022-10-09T12:56:59.344Z,95.90
2022-10-09T12:59:28.526Z,95.30
2022-10-09T13:01:59.279Z,95.40
2022-10-09T13:04:34.190Z,95.30
2022-10-09T13:07:05.596Z,95.20
2022-10-09T13:09:40.399Z,96.00
2022-10-09T13:12:19.501Z,95.50
2022-10-09T13:14:59.752Z,94.60
2022-10-09T13:17:41.306Z,94.40
2022-10-09T13:20:16.901Z,93.80
2022-10-09T13:22:55.278Z,94.10
2022-10-09T13:25:23.349Z,93.70
2022-10-09T13:27:50.276Z,93.40
2022-10-09T13:30:17.385Z,92.90
2022-10-09T13:32:43.947Z,92.60
2022-10-09T13:35:10.562Z,93.30
2022-10-09T13:37:37.223Z,93.20
2022-10-09T13:40:05.794Z,93.10
2022-10-09T13:42:36.884Z,93.40
2022-10-09T13:45:04.854Z,92.80
2022-10-09T13:47:31.719Z,93.00
2022-10-09T13:49:58.545Z,93.00
2022-10-09T13:52:25.269Z,93.90
2022-10-09T13:54:52.022Z,93.60
2022-10-09T13:57:18.723Z,94.10
2022-10-09T13:59:45.639Z,94.00
2022-10-09T14:02:12.608Z,94.30
2022-10-09T14:04:39.338Z,93.80
2022-10-09T14:07:05.867Z,93.90
2022-10-09T14:09:32.402Z,92.80
2022-10-09T14:11:58.951Z,93.60
2022-10-09T14:14:25.486Z,93.60
2022-10-09T14:16:52.166Z,93.10
2022-10-09T14:19:18.876Z,92.70
2022-10-09T14:21:46.749Z,92.50
2022-10-09T14:24:14.615Z,92.80
2022-10-09T14:26:41.221Z,93.20
2022-10-09T14:29:08.826Z,93.00
2022-10-09T14:31:35.431Z,93.90
2022-10-09T14:34:02.042Z,93.70
2022-10-09T14:36:29.075Z,93.70
2022-10-09T14:38:55.984Z,92.80
2022-10-09T14:41:22.684Z,93.50
2022-10-09T14:43:56.615Z,93.40
2022-10-09T14:46:23.986Z,93.50
2022-10-09T14:48:51.394Z,93.20
2022-10-09T14:51:20.367Z,93.50
2022-10-09T14:53:47.860Z,93.70
2022-10-09T14:56:17.406Z,94.10
2022-10-09T14:58:44.866Z,95.10
2022-10-09T15:01:17.005Z,94.10
2022-10-09T15:03:44.761Z,94.30
2022-10-09T15:06:12.763Z,94.70
2022-10-09T15:08:42.047Z,95.30
2022-10-09T15:11:10.485Z,95.40
2022-10-09T15:13:37.814Z,95.80
2022-10-09T15:16:11.501Z,95.80
2022-10-09T15:18:38.227Z,95.80
2022-10-09T15:21:05.121Z,96.00
2022-10-09T15:23:32.124Z,96.10
2022-10-09T15:26:00.612Z,95.80
2022-10-09T15:28:27.471Z,95.90
2022-10-09T15:30:57.732Z,96.20
2022-10-09T15:33:24.898Z,96.40
2022-10-09T15:35:52.517Z,96.30
2022-10-09T15:38:21.381Z,96.10
2022-10-09T15:40:53.856Z,96.30
2022-10-09T15:43:23.301Z,96.20
2022-10-09T15:45:50.366Z,96.40
2022-10-09T15:48:18.057Z,96.30
2022-10-09T15:50:46.474Z,96.60
2022-10-09T15:53:14.895Z,96.70
2022-10-09T15:55:46.530Z,97.00
2022-10-09T15:58:14.323Z,97.80
2022-10-09T16:00:43.106Z,97.60
2022-10-09T16:03:10.807Z,97.50
2022-10-09T16:05:48.330Z,97.90
2022-10-09T16:08:16.058Z,98.50
2022-10-09T16:10:48.666Z,98.80
2022-10-09T16:13:16.384Z,98.90
2022-10-09T16:15:47.423Z,98.90
2022-10-09T16:18:16.202Z,98.80
2022-10-09T16:20:42.898Z,98.60
2022-10-09T16:23:10.369Z,99.30
2022-10-09T16:25:38.498Z,99.20
2022-10-09T16:28:06.169Z,99.50
2022-10-09T16:30:37.383Z,99.80
2022-10-09T16:33:03.968Z,99.90
2022-10-09T16:35:30.509Z,99.90
2022-10-09T16:37:57.040Z,99.90
2022-10-09T16:40:37.447Z,99.90
2022-10-09T16:43:10.534Z,99.90
2022-10-09T16:45:37.122Z,99.90
2022-10-09T16:48:04.082Z,99.90
2022-10-09T16:50:30.654Z,99.90
2022-10-09T16:52:57.611Z,99.90
2022-10-09T16:55:24.396Z,99.90
2022-10-09T16:57:51.282Z,99.90
2022-10-09T17:00:19.332Z,99.90
2022-10-09T17:02:46.097Z,99.90
2022-10-09T17:05:13.329Z,99.90
2022-10-09T17:07:40.137Z,99.90
2022-10-09T17:10:07.221Z,99.90
2022-10-09T17:12:33.770Z,99.90
2022-10-09T17:15:00.324Z,99.90
2022-10-09T17:17:26.936Z,99.90
2022-10-09T17:19:53.732Z,99.90
2022-10-09T17:22:20.499Z,99.90
2022-10-09T17:24:47.183Z,99.90
2022-10-09T17:27:13.763Z,99.90
2022-10-09T17:29:40.343Z,99.90
2022-10-09T17:32:09.122Z,99.90
2022-10-09T17:34:35.841Z,99.90
2022-10-09T17:37:02.685Z,99.90
2022-10-09T17:39:29.396Z,99.90
2022-10-09T17:41:56.064Z,99.90
2022-10-09T17:44:23.627Z,99.90
2022-10-09T17:46:50.259Z,99.90
2022-10-09T17:49:16.850Z,99.90
2022-10-09T17:51:43.532Z,99.90
2022-10-09T17:54:16.869Z,99.90
2022-10-09T17:56:43.828Z,99.90
2022-10-09T17:59:10.699Z,99.90
2022-10-09T18:01:37.837Z,99.90
2022-10-09T18:04:04.639Z,99.90
2022-10-09T18:06:33.858Z,99.90
2022-10-09T18:09:00.641Z,99.90
2022-10-09T18:11:27.623Z,99.90
2022-10-09T18:13:54.602Z,99.90
2022-10-09T18:16:35.389Z,99.90
2022-10-09T18:19:05.350Z,99.90
2022-10-09T18:21:31.973Z,99.90
2022-10-09T18:23:58.725Z,99.90
2022-10-09T18:26:25.340Z,99.90
2022-10-09T18:28:51.972Z,99.90
2022-10-09T18:31:20.860Z,99.90
2022-10-09T18:33:47.811Z,99.90
2022-10-09T18:36:20.669Z,99.90
2022-10-09T18:38:57.922Z,99.90
2022-10-09T18:41:24.454Z,99.90
2022-10-09T18:43:52.398Z,99.90
2022-10-09T18:46:23.510Z,99.90
2022-10-09T18:48:51.246Z,99.90
2022-10-09T18:51:21.202Z,99.90
2022-10-09T18:53:52.105Z,99.90
2022-10-09T18:56:20.740Z,99.90
2022-10-09T18:58:48.271Z,99.90
2022-10-09T19:01:14.902Z,99.90
2022-10-09T19:03:45.903Z,99.90
2022-10-09T19:06:15.766Z,99.90
2022-10-09T19:08:42.359Z,99.90
2022-10-09T19:11:09.099Z,99.90
2022-10-09T19:13:35.647Z,99.90
2022-10-09T19:16:05.621Z,99.90
2022-10-09T19:18:34.639Z,99.90
2022-10-09T19:21:01.934Z,99.90
2022-10-09T19:23:28.885Z,99.90
2022-10-09T19:25:57.597Z,99.90
2022-10-09T19:28:27.519Z,99.90
2022-10-09T19:30:54.443Z,99.90
2022-10-09T19:33:21.049Z,99.90
2022-10-09T19:35:48.488Z,99.90
2022-10-09T19:38:15.883Z,99.90
2022-10-09T19:40:43.273Z,99.90
2022-10-09T19:43:10.327Z,99.90
2022-10-09T19:45:36.957Z,99.90
2022-10-09T19:48:03.854Z,99.90
2022-10-09T19:50:30.881Z,99.90
2022-10-09T19:52:58.247Z,99.90
2022-10-09T19:55:30.137Z,99.90
2022-10-09T19:57:58.003Z,99.90
2022-10-09T20:00:24.627Z,99.90
2022-10-09T20:02:51.527Z,99.90
2022-10-09T20:05:18.325Z,99.90
2022-10-09T20:07:45.072Z,99.90
2022-10-09T20:10:11.628Z,99.90
2022-10-09T20:12:38.335Z,99.90
2022-10-09T20:15:05.389Z,99.90
2022-10-09T20:17:31.961Z,99.90
2022-10-09T20:19:58.499Z,99.90
2022-10-09T20:22:25.148Z,99.90
2022-10-09T20:24:53.275Z,99.90
2022-10-09T20:27:19.811Z,99.90
2022-10-09T20:29:46.392Z,99.90
2022-10-09T20:32:13.029Z,99.90
2022-10-09T20:34:39.581Z,99.90
2022-10-09T20:37:06.152Z,99.90
2022-10-09T20:39:32.732Z,99.90
2022-10-09T20:41:59.274Z,99.90
2022-10-09T20:44:25.827Z,99.90
2022-10-09T20:46:56.450Z,99.90
2022-10-09T20:49:23.579Z,99.90
2022-10-09T20:51:51.046Z,99.90
2022-10-09T20:54:19.948Z,99.90
2022-10-09T20:56:47.103Z,99.90
2022-10-09T20:59:14.156Z,99.90
2022-10-09T21:01:41.052Z,99.90
2022-10-09T21:04:09.868Z,99.90
2022-10-09T21:06:36.626Z,99.90
2022-10-09T21:09:03.546Z,99.90
2022-10-09T21:11:32.298Z,99.90
2022-10-09T21:13:58.837Z,99.90
2022-10-09T21:16:25.684Z,99.90
2022-10-09T21:18:57.515Z,99.90
2022-10-09T21:21:24.759Z,99.90
2022-10-09T21:23:53.166Z,99.90
2022-10-09T21:26:21.923Z,99.90
2022-10-09T21:28:48.996Z,99.90
2022-10-09T21:31:19.023Z,99.90
2022-10-09T21:33:46.496Z,99.90
2022-10-09T21:36:47.180Z,99.90
2022-10-09T21:39:25.315Z,99.90
2022-10-09T21:41:52.099Z,99.90
2022-10-09T21:44:18.619Z,99.90
2022-10-09T21:46:45.183Z,99.90
2022-10-09T21:49:24.001Z,99.90
2022-10-09T21:51:50.734Z,99.90
2022-10-09T21:54:17.655Z,99.90
2022-10-09T21:56:44.193Z,99.90
2022-10-09T21:59:11.356Z,99.90
2022-10-09T22:01:38.029Z,99.90
2022-10-09T22:04:04.971Z,99.90
2022-10-09T22:06:31.485Z,99.90
2022-10-09T22:08:59.862Z,99.90
2022-10-09T22:11:26.793Z,99.90
2022-10-09T22:13:55.148Z,99.90
2022-10-09T22:16:21.967Z,99.90
2022-10-09T22:18:48.523Z,99.90
2022-10-09T22:21:15.799Z,99.90
2022-10-09T22:23:43.022Z,99.90
2022-10-09T22:26:16.874Z,99.90
2022-10-09T22:28:44.049Z,99.90
2022-10-09T22:31:19.946Z,99.90
2022-10-09T22:33:58.035Z,99.90
2022-10-09T22:36:27.569Z,99.90
2022-10-09T22:38:56.105Z,99.90
2022-10-09T22:41:23.964Z,99.90
2022-10-09T22:43:53.914Z,99.90
2022-10-09T22:46:33.299Z,99.90
2022-10-09T22:49:00.465Z,99.90
2022-10-09T22:51:28.961Z,99.90
2022-10-09T22:53:57.125Z,99.90
2022-10-09T22:56:26.348Z,99.90
2022-10-09T22:58:53.942Z,99.90
2022-10-09T23:01:27.130Z,99.90
2022-10-09T23:03:53.687Z,99.90
2022-10-09T23:06:20.284Z,99.90
2022-10-09T23:08:48.335Z,99.90
2022-10-09T23:11:16.564Z,99.90
2022-10-09T23:13:44.396Z,99.90
2022-10-09T23:16:13.312Z,99.90
2022-10-09T23:18:41.397Z,99.90
2022-10-09T23:21:11.994Z,99.90
2022-10-09T23:23:38.789Z,99.90
2022-10-09T23:26:12.078Z,99.90
2022-10-09T23:28:39.443Z,99.90
2022-10-09T23:31:09.037Z,99.90
2022-10-09T23:33:38.282Z,99.90
2022-10-09T23:36:05.338Z,99.90
2022-10-09T23:38:31.933Z,99.90
2022-10-09T23:41:07.899Z,99.90
2022-10-09T23:43:36.568Z,99.90
2022-10-09T23:46:05.048Z,99.90
2022-10-09T23:48:32.053Z,99.90
2022-10-09T23:50:58.705Z,99.90
2022-10-09T23:53:26.857Z,99.90
2022-10-09T23:55:54.341Z,99.90
2022-10-09T23:58:21.798Z,99.90
